createdAt,value
2018-10-16T00:00:03.105Z,99252.02
2018-10-16T00:16:44.609Z,99262.56
2018-10-16T00:19:12.748Z,99269.83
2018-10-16T00:21:41.424Z,99264.97
2018-10-16T00:24:09.552Z,99270.57
2018-10-16T00:26:37.688Z,99275.00
2018-10-16T00:29:05.840Z,99269.62
2018-10-16T00:31:33.968Z,99275.00
2018-10-16T00:34:02.113Z,99271.49
2018-10-16T00:36:30.272Z,99277.36
2018-10-16T00:38:58.402Z,99275.02
2018-10-16T00:41:26.575Z,99276.98
2018-10-16T00:43:54.713Z,99281.51
2018-10-16T00:46:22.957Z,99284.24
2018-10-16T00:48:51.241Z,99280.00
2018-10-16T00:51:19.366Z,99286.78
2018-10-16T00:53:47.875Z,99287.88
2018-10-16T00:56:16.053Z,99290.77
2018-10-16T00:58:44.193Z,99290.11
2018-10-16T01:01:12.336Z,99290.56
2018-10-16T01:03:40.463Z,99296.36
2018-10-16T01:06:09.159Z,99294.05
2018-10-16T01:08:37.286Z,99294.85
2018-10-16T01:11:09.218Z,99298.03
2018-10-16T01:13:37.341Z,99299.48
2018-10-16T01:16:05.869Z,99301.55
2018-10-16T01:18:34.006Z,99297.73
2018-10-16T01:21:02.178Z,99304.86
2018-10-16T01:23:30.348Z,99309.01
2018-10-16T01:25:58.483Z,99305.22
2018-10-16T01:28:26.614Z,99304.69
2018-10-16T01:30:54.754Z,99306.00
2018-10-16T01:33:22.878Z,99310.23
2018-10-16T01:35:51.030Z,99307.00
2018-10-16T01:38:19.197Z,99305.33
2018-10-16T01:40:47.332Z,99313.36
2018-10-16T01:43:15.479Z,99316.22
2018-10-16T01:45:43.611Z,99313.00
2018-10-16T01:48:11.783Z,99308.89
2018-10-16T01:50:39.915Z,99303.70
2018-10-16T01:53:08.053Z,99308.63
2018-10-16T01:55:36.186Z,99300.58
2018-10-16T01:58:04.329Z,99300.58
2018-10-16T02:00:32.452Z,99301.66
2018-10-16T02:03:00.589Z,99299.57
2018-10-16T02:05:28.722Z,99302.39
2018-10-16T02:07:56.901Z,99304.59
2018-10-16T02:10:25.133Z,99307.50
2018-10-16T02:12:53.284Z,99308.11
2018-10-16T02:15:21.495Z,99305.34
2018-10-16T02:17:49.607Z,99306.88
2018-10-16T02:20:17.748Z,99307.25
2018-10-16T02:22:45.886Z,99309.20
2018-10-16T02:25:14.028Z,99305.34
2018-10-16T02:27:42.183Z,99301.44
2018-10-16T02:30:10.315Z,99301.88
2018-10-16T02:32:38.515Z,99307.48
2018-10-16T02:35:07.233Z,99307.08
2018-10-16T02:37:35.380Z,99308.98
2018-10-16T02:40:03.685Z,99308.16
2018-10-16T02:42:31.809Z,99314.54
2018-10-16T02:44:59.947Z,99314.05
2018-10-16T02:47:28.081Z,99317.23
2018-10-16T02:49:56.330Z,99316.27
2018-10-16T02:52:24.467Z,99315.98
2018-10-16T02:54:52.605Z,99321.66
2018-10-16T02:57:21.261Z,99316.45
2018-10-16T02:59:49.400Z,99323.52
2018-10-16T03:02:17.520Z,99327.70
2018-10-16T03:04:45.649Z,99336.64
2018-10-16T03:07:13.875Z,99328.54
2018-10-16T03:09:41.919Z,99333.91
2018-10-16T03:12:10.046Z,99337.48
2018-10-16T03:14:38.190Z,99338.73
2018-10-16T03:17:06.339Z,99329.32
2018-10-16T03:19:34.477Z,99334.85
2018-10-16T03:22:02.802Z,99334.59
2018-10-16T03:24:30.948Z,99336.89
2018-10-16T03:26:59.132Z,99338.19
2018-10-16T03:29:27.289Z,99340.82
2018-10-16T03:31:55.417Z,99341.81
2018-10-16T03:34:23.554Z,99341.47
2018-10-16T03:36:51.695Z,99346.50
2018-10-16T03:39:19.884Z,99348.59
2018-10-16T03:41:48.027Z,99348.30
2018-10-16T03:44:17.593Z,99354.97
2018-10-16T03:46:45.727Z,99356.85
2018-10-16T03:49:13.858Z,99358.67
2018-10-16T03:51:42.110Z,99363.03
2018-10-16T03:54:10.677Z,99358.67
2018-10-16T03:56:38.799Z,99357.48
2018-10-16T03:59:07.145Z,99356.02
2018-10-16T04:01:35.272Z,99363.92
2018-10-16T04:04:03.414Z,99365.86
2018-10-16T04:06:31.716Z,99370.95
2018-10-16T04:08:59.806Z,99370.75
2018-10-16T04:11:27.995Z,99374.38
2018-10-16T04:13:56.257Z,99374.55
2018-10-16T04:16:24.371Z,99375.99
2018-10-16T04:18:52.500Z,99375.05
2018-10-16T04:21:20.703Z,99379.23
2018-10-16T04:23:48.851Z,99374.86
2018-10-16T04:29:07.763Z,99367.42
2018-10-16T04:31:35.945Z,99367.00
2018-10-16T04:34:04.195Z,99371.64
2018-10-16T04:36:32.386Z,99367.45
2018-10-16T04:39:00.542Z,99372.44
2018-10-16T04:41:29.176Z,99377.34
2018-10-16T04:43:57.331Z,99379.52
2018-10-16T04:46:28.477Z,99376.84
2018-10-16T04:48:56.725Z,99380.05
2018-10-16T04:51:24.905Z,99381.63
2018-10-16T04:53:53.097Z,99377.39
2018-10-16T04:56:21.265Z,99384.58
2018-10-16T04:58:49.420Z,99381.99
2018-10-16T05:01:17.588Z,99391.17
2018-10-16T05:03:45.745Z,99384.70
2018-10-16T05:06:13.915Z,99390.20
2018-10-16T05:08:42.072Z,99393.32
2018-10-16T05:11:10.237Z,99392.38
2018-10-16T05:13:38.926Z,99387.52
2018-10-16T05:16:07.529Z,99386.73
2018-10-16T05:18:35.741Z,99385.00
2018-10-16T05:21:03.900Z,99389.03
2018-10-16T05:23:32.047Z,99389.20
2018-10-16T05:26:00.243Z,99382.70
2018-10-16T05:28:28.423Z,99392.30
2018-10-16T05:30:56.606Z,99398.58
2018-10-16T05:33:25.579Z,99394.22
2018-10-16T05:35:53.727Z,99401.27
2018-10-16T05:38:21.944Z,99400.38
2018-10-16T05:40:50.093Z,99399.20
2018-10-16T05:43:18.248Z,99398.76
2018-10-16T05:45:46.898Z,99408.43
2018-10-16T05:48:15.236Z,99413.13
2018-10-16T05:50:43.438Z,99412.15
2018-10-16T05:53:11.687Z,99413.25
2018-10-16T05:55:39.831Z,99418.24
2018-10-16T05:58:08.074Z,99413.05
2018-10-16T06:00:40.528Z,99418.36
2018-10-16T06:03:08.797Z,99419.30
2018-10-16T06:05:36.973Z,99422.47
2018-10-16T06:08:05.462Z,99426.53
2018-10-16T06:10:33.682Z,99423.27
2018-10-16T06:13:01.847Z,99429.72
2018-10-16T06:15:29.989Z,99434.64
2018-10-16T06:18:00.192Z,99440.55
2018-10-16T06:20:28.393Z,99436.89
2018-10-16T06:22:56.541Z,99442.03
2018-10-16T06:25:24.725Z,99446.81
2018-10-16T06:27:52.947Z,99445.13
2018-10-16T06:30:21.142Z,99444.52
2018-10-16T06:32:49.229Z,99450.92
2018-10-16T06:35:17.401Z,99451.79
2018-10-16T06:37:46.345Z,99460.34
2018-10-16T06:40:14.514Z,99463.55
2018-10-16T06:42:42.660Z,99459.44
2018-10-16T06:45:11.333Z,99466.77
2018-10-16T06:47:39.657Z,99465.96
2018-10-16T06:50:10.002Z,99469.86
2018-10-16T06:52:38.189Z,99465.15
2018-10-16T06:55:06.398Z,99469.82
2018-10-16T06:57:34.566Z,99473.83
2018-10-16T07:00:02.732Z,99471.48
2018-10-16T07:02:30.976Z,99479.73
2018-10-16T07:04:59.665Z,99480.55
2018-10-16T07:07:28.002Z,99483.28
2018-10-16T07:09:56.065Z,99480.31
2018-10-16T07:12:24.337Z,99480.47
2018-10-16T07:14:52.588Z,99482.14
2018-10-16T07:17:20.708Z,99487.91
2018-10-16T07:19:49.413Z,99480.19
2018-10-16T07:22:17.612Z,99489.09
2018-10-16T07:24:45.765Z,99481.16
2018-10-16T07:27:13.941Z,99494.69
2018-10-16T07:29:42.096Z,99499.50
2018-10-16T07:32:10.255Z,99497.93
2018-10-16T07:34:39.385Z,99497.48
2018-10-16T07:37:07.546Z,99502.31
2018-10-16T07:39:35.773Z,99503.53
2018-10-16T07:42:03.995Z,99501.83
2018-10-16T07:44:32.172Z,99507.36
2018-10-16T07:47:00.343Z,99506.39
2018-10-16T07:49:28.497Z,99506.80
2018-10-16T07:51:56.661Z,99508.78
2018-10-16T07:54:24.871Z,99510.52
2018-10-16T07:56:53.024Z,99513.67
2018-10-16T07:59:21.195Z,99519.38
2018-10-16T08:01:49.392Z,99517.11
2018-10-16T08:04:17.562Z,99518.80
2018-10-16T08:06:45.735Z,99511.53
2018-10-16T08:09:16.017Z,99511.45
2018-10-16T08:11:44.458Z,99513.95
2018-10-16T08:14:13.348Z,99519.43
2018-10-16T08:16:41.597Z,99520.51
2018-10-16T08:19:09.773Z,99529.35
2018-10-16T08:21:37.915Z,99528.86
2018-10-16T08:24:06.389Z,99527.44
2018-10-16T08:26:34.514Z,99529.55
2018-10-16T08:29:02.701Z,99529.17
2018-10-16T08:31:30.945Z,99527.83
2018-10-16T08:33:59.104Z,99532.25
2018-10-16T08:36:27.510Z,99528.69
2018-10-16T08:39:29.484Z,99525.06
2018-10-16T08:44:16.721Z,99523.89
2018-10-16T08:46:56.264Z,99517.74
2018-10-16T08:49:36.648Z,99521.05
2018-10-16T08:52:04.768Z,99517.47
2018-10-16T08:54:32.888Z,99517.20
2018-10-16T08:57:01.058Z,99510.48
2018-10-16T08:59:29.180Z,99509.07
2018-10-16T09:01:57.311Z,99510.41
2018-10-16T09:04:25.823Z,99504.44
2018-10-16T09:06:54.004Z,99502.31
2018-10-16T09:09:22.894Z,99507.08
2018-10-16T09:11:51.013Z,99509.41
2018-10-16T09:14:19.207Z,99506.23
2018-10-16T09:16:47.289Z,99505.41
2018-10-16T09:19:15.464Z,99500.98
2018-10-16T09:21:43.585Z,99505.39
2018-10-16T09:24:12.646Z,99504.75
2018-10-16T09:26:40.780Z,99507.26
2018-10-16T09:29:08.903Z,99509.25
2018-10-16T09:31:37.063Z,99507.80
2018-10-16T09:34:05.217Z,99504.84
2018-10-16T09:36:33.390Z,99501.78
2018-10-16T09:39:02.410Z,99493.09
2018-10-16T09:41:30.543Z,99500.04
2018-10-16T09:43:58.655Z,99498.37
2018-10-16T09:46:26.820Z,99497.09
2018-10-16T09:48:54.937Z,99493.10
2018-10-16T09:51:23.157Z,99507.96
2018-10-16T09:53:51.389Z,99499.77
2018-10-16T09:56:19.519Z,99496.66
2018-10-16T09:58:47.640Z,99494.86
2018-10-16T10:01:21.220Z,99491.13
2018-10-16T10:03:49.337Z,99490.28
2018-10-16T10:06:17.529Z,99489.20
2018-10-16T10:08:45.714Z,99491.69
2018-10-16T10:11:13.851Z,99488.86
2018-10-16T10:13:41.962Z,99490.06
2018-10-16T10:16:10.154Z,99495.20
2018-10-16T10:18:38.272Z,99488.95
2018-10-16T10:21:06.392Z,99490.13
2018-10-16T10:23:34.583Z,99496.48
2018-10-16T10:26:02.706Z,99495.63
2018-10-16T10:28:30.835Z,99505.63
2018-10-16T10:30:59.569Z,99489.77
2018-10-16T10:33:27.693Z,99486.03
2018-10-16T10:35:55.814Z,99487.16
2018-10-16T10:38:23.962Z,99488.80
2018-10-16T10:40:52.077Z,99495.09
2018-10-16T10:43:21.056Z,99495.45
2018-10-16T10:45:49.174Z,99494.41
2018-10-16T10:48:17.299Z,99488.14
2018-10-16T10:50:47.112Z,99490.09
2018-10-16T10:53:15.025Z,99489.14
2018-10-16T10:55:43.148Z,99485.50
2018-10-16T10:58:11.350Z,99485.27
2018-10-16T11:00:39.456Z,99482.05
2018-10-16T11:03:07.645Z,99477.71
2018-10-16T11:05:35.788Z,99474.14
2018-10-16T11:08:03.908Z,99477.97
2018-10-16T11:10:32.037Z,99462.76
2018-10-16T11:13:00.204Z,99466.30
2018-10-16T11:15:28.330Z,99472.88
2018-10-16T11:17:56.450Z,99465.89
2018-10-16T11:20:24.597Z,99472.45
2018-10-16T11:22:52.703Z,99461.67
2018-10-16T11:25:20.831Z,99461.99
2018-10-16T11:27:48.965Z,99460.26
2018-10-16T11:30:17.130Z,99465.88
2018-10-16T11:32:45.222Z,99457.44
2018-10-16T11:35:14.569Z,99455.73
2018-10-16T11:37:42.922Z,99451.11
2018-10-16T11:40:11.434Z,99450.23
2018-10-16T11:42:40.293Z,99445.31
2018-10-16T11:45:08.558Z,99447.57
2018-10-16T11:47:37.263Z,99450.01
2018-10-16T11:50:06.355Z,99448.23
2018-10-16T11:52:34.505Z,99448.58
2018-10-16T11:55:02.630Z,99445.53
2018-10-16T11:57:30.804Z,99452.19
2018-10-16T11:59:58.939Z,99442.73
2018-10-16T12:02:27.124Z,99436.69
2018-10-16T12:04:55.334Z,99437.88
2018-10-16T12:07:23.455Z,99437.49
2018-10-16T12:09:51.628Z,99429.28
2018-10-16T12:12:19.778Z,99434.05
2018-10-16T12:14:47.901Z,99433.00
2018-10-16T12:17:21.482Z,99425.56
2018-10-16T12:19:53.827Z,99425.41
2018-10-16T12:22:21.890Z,99423.39
2018-10-16T12:24:50.133Z,99434.91
2018-10-16T12:27:18.256Z,99420.34
2018-10-16T12:29:46.386Z,99418.70
2018-10-16T12:32:14.563Z,99422.36
2018-10-16T12:34:42.632Z,99416.28
2018-10-16T12:37:10.840Z,99424.09
2018-10-16T12:39:42.003Z,99428.50
2018-10-16T12:42:10.133Z,99419.42
2018-10-16T12:44:38.300Z,99417.86
2018-10-16T12:47:06.635Z,99416.59
2018-10-16T12:49:34.747Z,99416.00
2018-10-16T12:52:03.117Z,99419.20
2018-10-16T12:54:31.259Z,99416.64
2018-10-16T12:56:59.466Z,99416.34
2018-10-16T12:59:27.567Z,99421.02
2018-10-16T13:01:55.720Z,99409.96
2018-10-16T13:04:23.861Z,99416.44
2018-10-16T13:06:53.139Z,99416.44
2018-10-16T13:09:21.274Z,99417.66
2018-10-16T13:11:49.434Z,99409.50
2018-10-16T13:14:17.669Z,99410.97
2018-10-16T13:16:45.834Z,99408.45
2018-10-16T13:19:13.930Z,99415.54
2018-10-16T13:21:42.093Z,99414.23
2018-10-16T13:24:10.241Z,99412.22
2018-10-16T13:26:38.391Z,99412.59
2018-10-16T13:29:06.572Z,99409.86
2018-10-16T13:31:34.683Z,99406.40
2018-10-16T13:34:02.849Z,99410.72
2018-10-16T13:36:32.247Z,99410.76
2018-10-16T13:39:00.389Z,99406.33
2018-10-16T13:41:28.545Z,99408.07
2018-10-16T13:43:56.714Z,99402.84
2018-10-16T13:46:24.988Z,99408.66
2018-10-16T13:48:53.148Z,99408.86
2018-10-16T13:51:21.289Z,99407.28
2018-10-16T13:53:49.414Z,99403.02
2018-10-16T13:56:17.574Z,99399.60
2018-10-16T13:58:45.786Z,99399.37
2018-10-16T14:01:13.924Z,99400.57
2018-10-16T14:03:42.965Z,99403.48
2018-10-16T14:06:11.110Z,99407.34
2018-10-16T14:08:39.250Z,99411.61
2018-10-16T14:11:08.508Z,99408.39
2018-10-16T14:13:36.656Z,99399.67
2018-10-16T14:16:05.253Z,99410.05
2018-10-16T14:18:33.353Z,99406.92
2018-10-16T14:21:01.478Z,99401.29
2018-10-16T14:23:29.682Z,99407.88
2018-10-16T14:25:57.832Z,99404.20
2018-10-16T14:28:26.040Z,99398.73
2018-10-16T14:30:54.245Z,99404.70
2018-10-16T14:33:22.403Z,99407.44
2018-10-16T14:35:50.580Z,99407.77
2018-10-16T14:38:18.902Z,99408.20
2018-10-16T14:40:47.049Z,99404.17
2018-10-16T14:43:15.192Z,99410.02
2018-10-16T14:45:43.453Z,99412.47
2018-10-16T14:48:11.668Z,99410.28
2018-10-16T14:50:39.743Z,99409.83
2018-10-16T14:53:10.326Z,99412.00
2018-10-16T14:55:38.462Z,99410.77
2018-10-16T14:58:06.689Z,99406.66
2018-10-16T15:00:34.768Z,99412.23
2018-10-16T15:03:02.909Z,99410.58
2018-10-16T15:05:31.048Z,99412.08
2018-10-16T15:07:59.229Z,99409.37
2018-10-16T15:10:27.433Z,99410.07
2018-10-16T15:12:55.513Z,99412.16
2018-10-16T15:15:23.703Z,99415.34
2018-10-16T15:17:51.829Z,99414.45
2018-10-16T15:20:20.024Z,99415.30
2018-10-16T15:22:48.241Z,99408.79
2018-10-16T15:25:16.386Z,99402.17
2018-10-16T15:27:44.569Z,99400.88
2018-10-16T15:30:12.773Z,99396.05
2018-10-16T15:32:40.923Z,99391.89
2018-10-16T15:35:10.195Z,99394.26
2018-10-16T15:37:38.659Z,99394.89
2018-10-16T15:40:08.050Z,99396.73
2018-10-16T15:42:36.144Z,99396.86
2018-10-16T15:45:04.759Z,99396.34
2018-10-16T15:47:32.897Z,99396.03
2018-10-16T15:50:01.128Z,99394.52
2018-10-16T15:52:29.227Z,99393.56
2018-10-16T15:54:57.390Z,99396.54
2018-10-16T15:57:25.592Z,99392.33
2018-10-16T16:00:00.106Z,99387.77
2018-10-16T16:02:28.352Z,99390.16
2018-10-16T16:04:56.489Z,99394.69
2018-10-16T16:07:24.623Z,99398.90
2018-10-16T16:09:52.924Z,99396.17
2018-10-16T16:12:21.076Z,99397.64
2018-10-16T16:14:49.189Z,99399.13
2018-10-16T16:17:17.415Z,99395.92
2018-10-16T16:19:45.583Z,99400.92
2018-10-16T16:22:13.779Z,99405.61
2018-10-16T16:24:41.897Z,99403.08
2018-10-16T16:27:10.047Z,99404.88
2018-10-16T16:29:38.192Z,99407.03
2018-10-16T16:32:07.641Z,99412.56
2018-10-16T16:34:35.785Z,99412.53
2018-10-16T16:37:03.929Z,99413.53
2018-10-16T16:39:32.157Z,99414.48
2018-10-16T16:42:00.335Z,99418.94
2018-10-16T16:44:28.477Z,99420.39
2018-10-16T16:46:57.085Z,99417.36
2018-10-16T16:49:25.207Z,99414.84
2018-10-16T16:51:53.376Z,99415.25
2018-10-16T16:54:22.839Z,99422.16
2018-10-16T16:56:50.980Z,99423.20
2018-10-16T16:59:19.114Z,99421.63
2018-10-16T17:01:47.313Z,99430.09
2018-10-16T17:04:15.478Z,99428.34
2018-10-16T17:06:43.882Z,99428.94
2018-10-16T17:09:12.996Z,99440.73
2018-10-16T17:11:41.169Z,99432.25
2018-10-16T17:14:09.619Z,99434.63
2018-10-16T17:16:38.162Z,99438.52
2018-10-16T17:19:06.607Z,99446.31
2018-10-16T17:21:34.741Z,99445.05
2018-10-16T17:24:02.975Z,99456.42
2018-10-16T17:26:31.143Z,99456.86
2018-10-16T17:28:59.262Z,99457.81
2018-10-16T17:31:28.179Z,99458.09
2018-10-16T17:33:56.328Z,99461.23
2018-10-16T17:36:24.508Z,99462.97
2018-10-16T17:38:52.689Z,99465.52
2018-10-16T17:41:20.777Z,99469.61
2018-10-16T17:43:48.900Z,99470.16
2018-10-16T17:46:17.156Z,99469.69
2018-10-16T17:48:45.263Z,99469.83
2018-10-16T17:51:13.470Z,99470.14
2018-10-16T17:53:41.534Z,99472.78
2018-10-16T17:56:09.989Z,99476.50
2018-10-16T17:58:38.984Z,99478.22
2018-10-16T18:01:07.161Z,99474.31
2018-10-16T18:03:35.332Z,99475.80
2018-10-16T18:06:03.488Z,99477.02
2018-10-16T18:08:31.681Z,99478.01
2018-10-16T18:10:59.837Z,99482.15
2018-10-16T18:13:27.986Z,99481.30
2018-10-16T18:15:56.179Z,99488.50
2018-10-16T18:18:24.315Z,99485.47
2018-10-16T18:20:52.463Z,99494.84
2018-10-16T18:23:20.582Z,99494.20
2018-10-16T18:25:48.775Z,99493.73
2018-10-16T18:28:17.429Z,99484.52
2018-10-16T18:30:45.564Z,99489.84
2018-10-16T18:33:13.712Z,99487.77
2018-10-16T18:35:41.916Z,99485.33
2018-10-16T18:38:10.200Z,99491.12
2018-10-16T18:40:38.313Z,99492.40
2018-10-16T18:43:06.823Z,99488.03
2018-10-16T18:45:34.960Z,99487.61
2018-10-16T18:48:03.082Z,99491.69
2018-10-16T18:50:31.205Z,99492.14
2018-10-16T18:52:59.405Z,99493.36
2018-10-16T18:55:27.579Z,99488.64
2018-10-16T18:57:55.712Z,99483.31
2018-10-16T19:00:23.839Z,99491.05
2018-10-16T19:02:52.025Z,99489.44
2018-10-16T19:05:20.137Z,99502.61
2018-10-16T19:07:48.399Z,99502.00
2018-10-16T19:10:16.464Z,99503.63
2018-10-16T19:12:44.592Z,99503.63
2018-10-16T19:15:14.133Z,99506.44
2018-10-16T19:17:43.007Z,99509.12
2018-10-16T19:20:12.219Z,99519.11
2018-10-16T19:22:40.704Z,99512.23
2018-10-16T19:25:09.673Z,99512.77
2018-10-16T19:27:37.863Z,99511.99
2018-10-16T19:30:07.206Z,99515.09
2018-10-16T19:32:35.508Z,99513.61
2018-10-16T19:35:03.625Z,99514.79
2018-10-16T19:37:31.785Z,99515.19
2018-10-16T19:39:59.858Z,99519.25
2018-10-16T19:42:28.029Z,99517.30
2018-10-16T19:44:56.199Z,99517.84
2018-10-16T19:47:24.328Z,99519.24
2018-10-16T19:49:53.748Z,99515.48
2018-10-16T19:52:21.879Z,99519.53
2018-10-16T19:54:50.006Z,99520.16
2018-10-16T19:57:18.153Z,99520.87
2018-10-16T19:59:46.300Z,99523.38
2018-10-16T20:02:14.420Z,99516.97
2018-10-16T20:04:42.709Z,99521.02
2018-10-16T20:07:10.893Z,99517.28
2018-10-16T20:09:38.966Z,99522.06
2018-10-16T20:12:07.273Z,99532.59
2018-10-16T20:14:35.477Z,99532.80
2018-10-16T20:17:03.658Z,99538.80
2018-10-16T20:19:31.824Z,99537.37
2018-10-16T20:21:59.946Z,99542.86
2018-10-16T20:24:28.110Z,99541.00
2018-10-16T20:26:56.391Z,99539.62
2018-10-16T20:29:24.506Z,99542.36
2018-10-16T20:31:52.697Z,99547.22
2018-10-16T20:34:20.822Z,99548.95
2018-10-16T20:36:48.949Z,99553.78
2018-10-16T20:39:17.185Z,99546.37
2018-10-16T20:41:45.309Z,99546.77
2018-10-16T20:44:13.440Z,99542.89
2018-10-16T20:46:42.345Z,99542.70
2018-10-16T20:49:10.503Z,99548.30
2018-10-16T20:51:38.598Z,99553.39
2018-10-16T20:54:06.762Z,99545.73
2018-10-16T20:56:34.872Z,99541.94
2018-10-16T20:59:02.985Z,99543.08
2018-10-16T21:01:31.172Z,99540.54
2018-10-16T21:03:59.297Z,99537.39
2018-10-16T21:06:28.010Z,99543.27
2018-10-16T21:08:55.957Z,99545.55
2018-10-16T21:11:24.080Z,99548.11
2018-10-16T21:13:52.664Z,99550.00
2018-10-16T21:16:20.773Z,99550.01
2018-10-16T21:18:49.010Z,99546.21
2018-10-16T21:21:17.183Z,99551.63
2018-10-16T21:23:45.334Z,99550.00
2018-10-16T21:26:13.457Z,99549.21
2018-10-16T21:28:41.662Z,99549.61
2018-10-16T21:31:09.877Z,99555.84
2018-10-16T21:33:37.928Z,99553.29
2018-10-16T21:36:06.272Z,99553.85
2018-10-16T21:38:34.437Z,99554.61
2018-10-16T21:41:03.445Z,99555.27
2018-10-16T21:43:31.508Z,99554.77
2018-10-16T21:45:59.609Z,99556.55
2018-10-16T21:48:27.772Z,99551.81
2018-10-16T21:50:55.879Z,99545.08
2018-10-16T21:53:23.997Z,99543.30
2018-10-16T21:55:52.141Z,99544.25
2018-10-16T21:58:20.250Z,99539.52
2018-10-16T22:00:53.714Z,99536.87
2018-10-16T22:03:21.864Z,99530.59
2018-10-16T22:05:49.981Z,99532.64
2018-10-16T22:08:18.189Z,99529.44
2018-10-16T22:10:46.312Z,99528.09
2018-10-16T22:13:14.538Z,99532.88
2018-10-16T22:15:42.616Z,99532.20
2018-10-16T22:18:10.742Z,99536.92
2018-10-16T22:20:38.864Z,99541.70
2018-10-16T22:23:07.018Z,99543.23
2018-10-16T22:25:35.163Z,99539.62
2018-10-16T22:28:03.277Z,99544.36
2018-10-16T22:30:31.413Z,99536.56
2018-10-16T22:32:59.627Z,99532.78
2018-10-16T22:35:27.752Z,99529.33
2018-10-16T22:37:55.885Z,99532.16
2018-10-16T22:40:24.062Z,99526.41
2018-10-16T22:42:52.276Z,99525.28
2018-10-16T22:45:20.403Z,99529.03
2018-10-16T22:47:48.513Z,99529.28
2018-10-16T22:50:16.641Z,99528.20
2018-10-16T22:52:44.820Z,99531.17
2018-10-16T22:55:12.958Z,99524.35
2018-10-16T22:57:41.039Z,99527.38
2018-10-16T23:00:14.398Z,99526.42
2018-10-16T23:02:42.933Z,99523.89
2018-10-16T23:05:11.097Z,99526.61
2018-10-16T23:07:39.293Z,99520.37
2018-10-16T23:10:07.557Z,99519.59
2018-10-16T23:12:35.704Z,99518.87
2018-10-16T23:15:03.868Z,99521.05
2018-10-16T23:17:32.005Z,99517.73
2018-10-16T23:20:00.112Z,99509.53
2018-10-16T23:22:28.242Z,99510.30
2018-10-16T23:24:56.395Z,99505.78
2018-10-16T23:27:24.480Z,99507.16
2018-10-16T23:29:52.719Z,99508.72
2018-10-16T23:32:20.828Z,99511.13
2018-10-16T23:34:49.225Z,99515.45
2018-10-16T23:37:17.465Z,99511.86
2018-10-16T23:39:45.521Z,99505.02
2018-10-16T23:42:13.657Z,99505.70
2018-10-16T23:44:41.789Z,99505.47
2018-10-16T23:47:10.002Z,99501.98
2018-10-16T23:49:38.218Z,99500.03
2018-10-16T23:52:06.324Z,99503.34
2018-10-16T23:54:34.873Z,99497.50
2018-10-16T23:57:03.948Z,99497.06
2018-10-16T23:59:32.156Z,99493.53
